AFR080 CYYT-LFPG
Flight info
| Callsign | AFR080 |
|---|---|
| Flight time | N/A |
| Altitude | 41000 |
| Route | YYT DCT NICSO NATX 50N040W/M085F400 NATX ELSOX/M085F410 DCT LULOX/N0484F410 DCT NAKID DCT ANNET UM25 INGOR/N0492F280 UM25 LUKIP |
| Aircraft | A359/H-SDE2E3GHIJ3J4J5LM1ORWXY/LB1D1 |
Departure
| Time | 2026-04-19 05:31 |
|---|---|
| Airport | St. John's International Airport (CYYT) |
Arrival
| Time | N/A |
|---|---|
| Airport | Charles de Gaulle International Airport (LFPG) |
| Time | Latitude | Longitude | Altitude | Speed | Heading |
|---|---|---|---|---|---|
| 2026-04-19 05:02 | 47.61353 | -52.74116 | 473 ft | 0 kts | 242° |
| 2026-04-19 05:20 | 47.61352 | -52.74108 | 473 ft | 3 kts | 190° |
| 2026-04-19 05:20 | 47.61345 | -52.74103 | 473 ft | 4 kts | 175° |
| 2026-04-19 05:21 | 47.61358 | -52.74094 | 473 ft | 4 kts | 249° |
| 2026-04-19 05:21 | 47.61366 | -52.74056 | 473 ft | 4 kts | 259° |
| 2026-04-19 05:21 | 47.61369 | -52.74017 | 473 ft | 4 kts | 275° |
| 2026-04-19 05:21 | 47.61364 | -52.73984 | 475 ft | 1 kts | 298° |
| 2026-04-19 05:22 | 47.61364 | -52.73986 | 475 ft | 0 kts | 298° |
| 2026-04-19 05:22 | 47.61365 | -52.73989 | 475 ft | 0 kts | 298° |
| 2026-04-19 05:22 | 47.61365 | -52.73992 | 475 ft | 0 kts | 298° |
| 2026-04-19 05:22 | 47.61365 | -52.73993 | 475 ft | 0 kts | 298° |
| 2026-04-19 05:26 | 47.61367 | -52.73996 | 475 ft | 4 kts | 298° |
| 2026-04-19 05:26 | 47.61419 | -52.74151 | 476 ft | 19 kts | 295° |
| 2026-04-19 05:26 | 47.61474 | -52.74301 | 478 ft | 15 kts | 315° |
| 2026-04-19 05:26 | 47.61562 | -52.74276 | 476 ft | 13 kts | 36° |
| 2026-04-19 05:27 | 47.61625 | -52.74286 | 478 ft | 13 kts | 333° |
| 2026-04-19 05:27 | 47.61723 | -52.74395 | 478 ft | 19 kts | 320° |
| 2026-04-19 05:27 | 47.61827 | -52.74528 | 481 ft | 21 kts | 319° |
| 2026-04-19 05:27 | 47.61941 | -52.74676 | 480 ft | 21 kts | 318° |
| 2026-04-19 05:28 | 47.62045 | -52.74727 | 485 ft | 17 kts | 25° |
| 2026-04-19 05:28 | 47.62133 | -52.74655 | 482 ft | 15 kts | 355° |
| 2026-04-19 05:28 | 47.62231 | -52.74729 | 487 ft | 18 kts | 322° |
| 2026-04-19 05:28 | 47.62330 | -52.74854 | 485 ft | 20 kts | 319° |
| 2026-04-19 05:29 | 47.62428 | -52.74968 | 486 ft | 14 kts | 341° |
| 2026-04-19 05:29 | 47.62467 | -52.74897 | 483 ft | 17 kts | 75° |
| 2026-04-19 05:29 | 47.62483 | -52.74661 | 489 ft | 25 kts | 86° |
| 2026-04-19 05:29 | 47.62496 | -52.74392 | 482 ft | 27 kts | 87° |
| 2026-04-19 05:30 | 47.62508 | -52.74109 | 476 ft | 23 kts | 86° |
| 2026-04-19 05:30 | 47.62542 | -52.73884 | 476 ft | 20 kts | 67° |
| 2026-04-19 05:30 | 47.62532 | -52.73784 | 475 ft | 4 kts | 197° |
| 2026-04-19 05:30 | 47.62525 | -52.73818 | 471 ft | 10 kts | 264° |
| 2026-04-19 05:31 | 47.62517 | -52.74052 | 478 ft | 51 kts | 266° |
| 2026-04-19 05:31 | 47.62487 | -52.74596 | 488 ft | 105 kts | 265° |
| 2026-04-19 05:31 | 47.62422 | -52.76022 | 501 ft | 173 kts | 268° |
| 2026-04-19 05:31 | 47.62402 | -52.77925 | 1260 ft | 180 kts | 272° |
| 2026-04-19 05:32 | 47.62402 | -52.79866 | 1640 ft | 199 kts | 271° |
| 2026-04-19 05:32 | 47.62456 | -52.82023 | 1848 ft | 220 kts | 274° |
| 2026-04-19 05:32 | 47.62469 | -52.84368 | 2092 ft | 240 kts | 268° |
| 2026-04-19 05:32 | 47.62393 | -52.86932 | 2414 ft | 256 kts | 267° |
| 2026-04-19 05:33 | 47.62312 | -52.89616 | 2942 ft | 263 kts | 268° |
| 2026-04-19 05:33 | 47.62243 | -52.92356 | 3554 ft | 268 kts | 268° |
| 2026-04-19 05:33 | 47.62113 | -52.95120 | 4147 ft | 271 kts | 261° |
| 2026-04-19 05:33 | 47.61508 | -52.97763 | 4737 ft | 272 kts | 240° |
| 2026-04-19 05:34 | 47.60223 | -52.99781 | 5362 ft | 270 kts | 210° |
| 2026-04-19 05:34 | 47.58454 | -53.00608 | 5946 ft | 269 kts | 181° |
| 2026-04-19 05:34 | 47.56657 | -52.99962 | 6541 ft | 269 kts | 150° |
| 2026-04-19 05:34 | 47.55186 | -52.98260 | 7137 ft | 270 kts | 134° |
| 2026-04-19 05:35 | 47.53974 | -52.96122 | 7748 ft | 273 kts | 127° |
| 2026-04-19 05:35 | 47.52869 | -52.93829 | 8351 ft | 275 kts | 124° |
| 2026-04-19 05:35 | 47.51763 | -52.91488 | 8945 ft | 278 kts | 126° |
| 2026-04-19 05:35 | 47.50616 | -52.89167 | 9549 ft | 281 kts | 127° |
| 2026-04-19 05:36 | 47.49517 | -52.86773 | 9909 ft | 292 kts | 118° |
| 2026-04-19 05:36 | 47.48784 | -52.83894 | 10128 ft | 308 kts | 102° |
| 2026-04-19 05:36 | 47.48492 | -52.80688 | 10380 ft | 322 kts | 94° |
| 2026-04-19 05:36 | 47.48444 | -52.77306 | 10610 ft | 336 kts | 90° |
| 2026-04-19 05:37 | 47.48529 | -52.73786 | 10831 ft | 348 kts | 88° |
| 2026-04-19 05:37 | 47.48667 | -52.70162 | 11132 ft | 357 kts | 87° |
| 2026-04-19 05:37 | 47.48807 | -52.66479 | 11552 ft | 361 kts | 88° |
| 2026-04-19 05:37 | 47.48929 | -52.62760 | 12013 ft | 364 kts | 88° |
| 2026-04-19 05:38 | 47.49029 | -52.59007 | 12475 ft | 366 kts | 89° |
| 2026-04-19 05:38 | 47.49112 | -52.55233 | 12913 ft | 369 kts | 89° |
| 2026-04-19 05:38 | 47.49184 | -52.51426 | 13344 ft | 371 kts | 89° |
| 2026-04-19 05:38 | 47.49250 | -52.47600 | 13768 ft | 374 kts | 89° |
| 2026-04-19 05:39 | 47.49314 | -52.43743 | 14193 ft | 376 kts | 89° |
| 2026-04-19 05:39 | 47.49378 | -52.39866 | 14609 ft | 378 kts | 89° |
| 2026-04-19 05:39 | 47.49441 | -52.35962 | 15029 ft | 381 kts | 89° |
| 2026-04-19 05:39 | 47.49505 | -52.32032 | 15442 ft | 383 kts | 89° |
| 2026-04-19 05:40 | 47.49568 | -52.28083 | 15851 ft | 386 kts | 89° |
| 2026-04-19 05:40 | 47.49630 | -52.24110 | 16255 ft | 388 kts | 89° |
| 2026-04-19 05:40 | 47.49692 | -52.20113 | 16657 ft | 390 kts | 89° |
| 2026-04-19 05:40 | 47.49752 | -52.16092 | 17047 ft | 392 kts | 89° |
| 2026-04-19 05:41 | 47.49812 | -52.12039 | 17439 ft | 395 kts | 89° |
| 2026-04-19 05:41 | 47.49870 | -52.07972 | 17806 ft | 397 kts | 89° |
| 2026-04-19 05:41 | 47.49967 | -52.03877 | 18164 ft | 400 kts | 86° |
| 2026-04-19 05:41 | 47.50361 | -51.99800 | 18521 ft | 402 kts | 78° |
| 2026-04-19 05:42 | 47.51118 | -51.95812 | 18888 ft | 405 kts | 73° |
| 2026-04-19 05:42 | 47.52035 | -51.91861 | 19238 ft | 407 kts | 71° |
| 2026-04-19 05:42 | 47.53031 | -51.87935 | 19578 ft | 409 kts | 70° |
| 2026-04-19 05:42 | 47.54070 | -51.83998 | 19917 ft | 411 kts | 69° |
| 2026-04-19 05:43 | 47.55119 | -51.80055 | 20249 ft | 413 kts | 69° |
| 2026-04-19 05:43 | 47.56174 | -51.76075 | 20575 ft | 415 kts | 69° |
| 2026-04-19 05:43 | 47.57210 | -51.72128 | 20875 ft | 417 kts | 70° |
| 2026-04-19 05:43 | 47.58253 | -51.68115 | 21182 ft | 419 kts | 70° |
| 2026-04-19 05:44 | 47.59297 | -51.64071 | 21478 ft | 421 kts | 70° |
| 2026-04-19 05:44 | 47.60341 | -51.60009 | 21779 ft | 423 kts | 70° |
| 2026-04-19 05:44 | 47.61390 | -51.55917 | 22067 ft | 425 kts | 70° |
| 2026-04-19 05:44 | 47.62435 | -51.51829 | 22353 ft | 427 kts | 70° |
| 2026-04-19 05:45 | 47.63487 | -51.47710 | 22634 ft | 428 kts | 70° |
| 2026-04-19 05:45 | 47.64544 | -51.43562 | 22897 ft | 430 kts | 70° |
| 2026-04-19 05:45 | 47.65605 | -51.39394 | 23188 ft | 432 kts | 70° |
| 2026-04-19 05:45 | 47.66663 | -51.35231 | 23459 ft | 434 kts | 70° |
| 2026-04-19 05:46 | 47.67727 | -51.31035 | 23724 ft | 435 kts | 70° |
| 2026-04-19 05:46 | 47.68797 | -51.26809 | 23952 ft | 437 kts | 70° |
| 2026-04-19 05:46 | 47.69863 | -51.22591 | 24207 ft | 439 kts | 70° |
| 2026-04-19 05:46 | 47.70936 | -51.18336 | 24465 ft | 440 kts | 70° |
| 2026-04-19 05:47 | 47.72012 | -51.14065 | 24696 ft | 442 kts | 70° |
| 2026-04-19 05:47 | 47.73089 | -51.09779 | 24940 ft | 444 kts | 70° |
| 2026-04-19 05:47 | 47.74169 | -51.05474 | 25172 ft | 445 kts | 70° |
| 2026-04-19 05:47 | 47.75251 | -51.01154 | 25408 ft | 447 kts | 70° |
| 2026-04-19 05:48 | 47.76331 | -50.96829 | 25626 ft | 448 kts | 70° |
| 2026-04-19 05:48 | 47.77417 | -50.92475 | 25874 ft | 450 kts | 70° |
| 2026-04-19 05:48 | 47.78506 | -50.88101 | 26103 ft | 452 kts | 70° |
| 2026-04-19 05:48 | 47.79586 | -50.83752 | 26337 ft | 453 kts | 70° |
| 2026-04-19 05:49 | 47.80690 | -50.79300 | 26564 ft | 455 kts | 70° |
| 2026-04-19 05:49 | 47.81772 | -50.74930 | 26792 ft | 456 kts | 70° |
| 2026-04-19 05:49 | 47.82867 | -50.70493 | 27028 ft | 458 kts | 71° |
| 2026-04-19 05:49 | 47.83969 | -50.66023 | 27269 ft | 460 kts | 71° |
| 2026-04-19 05:50 | 47.85069 | -50.61551 | 27509 ft | 461 kts | 71° |
| 2026-04-19 05:50 | 47.86172 | -50.57055 | 27755 ft | 463 kts | 71° |
| 2026-04-19 05:50 | 47.87279 | -50.52533 | 27994 ft | 465 kts | 71° |
| 2026-04-19 05:50 | 47.88385 | -50.48010 | 28249 ft | 467 kts | 71° |
| 2026-04-19 05:51 | 47.89497 | -50.43455 | 28492 ft | 468 kts | 71° |
| 2026-04-19 05:51 | 47.90610 | -50.38884 | 28741 ft | 470 kts | 71° |
| 2026-04-19 05:51 | 47.91727 | -50.34287 | 28991 ft | 472 kts | 71° |
| 2026-04-19 05:51 | 47.92846 | -50.29670 | 29232 ft | 474 kts | 71° |
| 2026-04-19 05:52 | 47.93963 | -50.25054 | 29468 ft | 475 kts | 71° |
| 2026-04-19 05:52 | 47.95088 | -50.20396 | 29713 ft | 477 kts | 71° |
| 2026-04-19 05:52 | 47.96211 | -50.15734 | 29942 ft | 479 kts | 71° |
| 2026-04-19 05:52 | 47.97339 | -50.11044 | 30185 ft | 481 kts | 71° |
| 2026-04-19 05:53 | 47.98467 | -50.06341 | 30422 ft | 482 kts | 71° |
| 2026-04-19 05:53 | 47.99598 | -50.01620 | 30653 ft | 484 kts | 71° |
| 2026-04-19 05:53 | 48.00738 | -49.96865 | 30878 ft | 486 kts | 71° |
| 2026-04-19 05:53 | 48.01912 | -49.92123 | 31115 ft | 488 kts | 70° |
| 2026-04-19 05:54 | 48.03113 | -49.87385 | 31336 ft | 489 kts | 70° |
| 2026-04-19 05:54 | 48.04327 | -49.82620 | 31546 ft | 491 kts | 70° |
| 2026-04-19 05:54 | 48.05540 | -49.77843 | 31757 ft | 493 kts | 70° |
| 2026-04-19 05:54 | 48.06749 | -49.73052 | 31956 ft | 494 kts | 70° |
| 2026-04-19 05:55 | 48.07960 | -49.68220 | 32150 ft | 496 kts | 70° |
| 2026-04-19 05:55 | 48.09165 | -49.63390 | 32374 ft | 496 kts | 70° |
| 2026-04-19 05:55 | 48.10365 | -49.58558 | 32656 ft | 495 kts | 70° |
| 2026-04-19 05:55 | 48.11565 | -49.53717 | 32934 ft | 495 kts | 70° |
| 2026-04-19 05:56 | 48.12756 | -49.48898 | 33207 ft | 494 kts | 70° |
| 2026-04-19 05:56 | 48.13945 | -49.44078 | 33480 ft | 494 kts | 70° |
| 2026-04-19 05:56 | 48.15135 | -49.39242 | 33746 ft | 493 kts | 70° |
| 2026-04-19 05:56 | 48.16317 | -49.34427 | 34028 ft | 493 kts | 70° |
| 2026-04-19 05:57 | 48.17350 | -49.30214 | 34275 ft | 492 kts | 71° |
| 2026-04-19 05:57 | 48.18530 | -49.25391 | 34549 ft | 492 kts | 71° |
| 2026-04-19 05:57 | 48.19704 | -49.20582 | 34808 ft | 491 kts | 71° |
| 2026-04-19 05:57 | 48.20872 | -49.15787 | 35076 ft | 490 kts | 71° |
| 2026-04-19 05:58 | 48.22042 | -49.10978 | 35346 ft | 490 kts | 71° |
| 2026-04-19 05:58 | 48.23205 | -49.06184 | 35614 ft | 489 kts | 71° |
| 2026-04-19 05:58 | 48.24366 | -49.01386 | 35857 ft | 489 kts | 71° |
| 2026-04-19 05:58 | 48.25525 | -48.96585 | 36118 ft | 488 kts | 71° |
| 2026-04-19 05:59 | 48.26677 | -48.91807 | 36372 ft | 488 kts | 71° |
| 2026-04-19 05:59 | 48.27834 | -48.86998 | 36610 ft | 488 kts | 71° |
| 2026-04-19 05:59 | 48.28984 | -48.82208 | 36841 ft | 488 kts | 71° |
| 2026-04-19 05:59 | 48.30135 | -48.77401 | 37058 ft | 488 kts | 71° |
| 2026-04-19 06:00 | 48.31282 | -48.72600 | 37270 ft | 488 kts | 71° |
| 2026-04-19 06:00 | 48.32424 | -48.67808 | 37483 ft | 488 kts | 71° |
| 2026-04-19 06:00 | 48.33570 | -48.62993 | 37682 ft | 488 kts | 71° |
| 2026-04-19 06:00 | 48.34695 | -48.58253 | 37883 ft | 488 kts | 71° |
| 2026-04-19 06:01 | 48.35699 | -48.54018 | 38047 ft | 488 kts | 71° |
| 2026-04-19 06:01 | 48.36837 | -48.49206 | 38224 ft | 488 kts | 71° |
| 2026-04-19 06:01 | 48.37974 | -48.44386 | 38432 ft | 488 kts | 71° |
| 2026-04-19 06:01 | 48.39094 | -48.39627 | 38588 ft | 488 kts | 71° |
| 2026-04-19 06:02 | 48.40222 | -48.34825 | 38754 ft | 488 kts | 71° |
| 2026-04-19 06:02 | 48.41352 | -48.30001 | 38912 ft | 488 kts | 71° |
| 2026-04-19 06:02 | 48.42496 | -48.25110 | 39082 ft | 488 kts | 71° |
| 2026-04-19 06:02 | 48.43617 | -48.20304 | 39231 ft | 488 kts | 71° |
| 2026-04-19 06:03 | 48.44741 | -48.15474 | 39374 ft | 488 kts | 71° |
| 2026-04-19 06:03 | 48.45848 | -48.10706 | 39515 ft | 488 kts | 71° |
| 2026-04-19 06:03 | 48.46970 | -48.05865 | 39649 ft | 488 kts | 71° |
| 2026-04-19 06:03 | 48.48087 | -48.01031 | 39778 ft | 488 kts | 71° |
| 2026-04-19 06:04 | 48.49201 | -47.96204 | 39904 ft | 488 kts | 71° |
| 2026-04-19 06:04 | 48.50312 | -47.91373 | 40016 ft | 488 kts | 72° |
| 2026-04-19 06:04 | 48.51424 | -47.86534 | 40140 ft | 488 kts | 72° |
| 2026-04-19 06:04 | 48.52535 | -47.81683 | 40260 ft | 488 kts | 72° |
| 2026-04-19 06:05 | 48.53640 | -47.76850 | 40359 ft | 489 kts | 72° |
| 2026-04-19 06:05 | 48.54745 | -47.72008 | 40462 ft | 489 kts | 72° |
| 2026-04-19 06:05 | 48.55851 | -47.67147 | 40563 ft | 489 kts | 72° |
| 2026-04-19 06:06 | 48.58050 | -47.57452 | 40738 ft | 489 kts | 72° |
| 2026-04-19 06:06 | 48.60244 | -47.47728 | 40915 ft | 489 kts | 72° |
| 2026-04-19 06:07 | 48.62435 | -47.37975 | 40935 ft | 489 kts | 72° |
| 2026-04-19 06:07 | 48.64615 | -47.28232 | 40934 ft | 489 kts | 72° |
| 2026-04-19 06:08 | 48.66785 | -47.18483 | 40934 ft | 489 kts | 72° |
| 2026-04-19 06:08 | 48.68946 | -47.08730 | 40934 ft | 489 kts | 72° |
| 2026-04-19 06:09 | 48.71101 | -46.98962 | 40934 ft | 489 kts | 72° |
| 2026-04-19 06:09 | 48.73231 | -46.89256 | 40934 ft | 489 kts | 72° |
| 2026-04-19 06:10 | 48.75369 | -46.79469 | 40934 ft | 489 kts | 72° |
| 2026-04-19 06:10 | 48.77497 | -46.69687 | 40934 ft | 489 kts | 72° |
| 2026-04-19 06:11 | 48.79616 | -46.59893 | 40934 ft | 489 kts | 72° |
| 2026-04-19 06:11 | 48.81730 | -46.50080 | 40934 ft | 489 kts | 73° |
| 2026-04-19 06:12 | 48.84882 | -46.35357 | 40934 ft | 489 kts | 73° |
| 2026-04-19 06:12 | 48.86969 | -46.25552 | 40934 ft | 489 kts | 73° |
| 2026-04-19 06:13 | 48.89057 | -46.15693 | 40934 ft | 489 kts | 73° |
| 2026-04-19 06:13 | 48.91131 | -46.05850 | 40934 ft | 489 kts | 73° |
| 2026-04-19 06:14 | 48.93195 | -45.96010 | 40934 ft | 489 kts | 73° |
| 2026-04-19 06:14 | 48.95252 | -45.86154 | 40934 ft | 489 kts | 73° |
| 2026-04-19 06:15 | 48.97303 | -45.76282 | 40934 ft | 489 kts | 73° |
| 2026-04-19 06:15 | 48.99342 | -45.66413 | 40934 ft | 489 kts | 73° |
| 2026-04-19 06:16 | 49.01245 | -45.57161 | 40934 ft | 489 kts | 73° |
| 2026-04-19 06:16 | 49.03270 | -45.47269 | 40934 ft | 489 kts | 73° |
| 2026-04-19 06:17 | 49.05283 | -45.37386 | 40934 ft | 489 kts | 73° |
| 2026-04-19 06:17 | 49.06967 | -45.29078 | 40934 ft | 489 kts | 73° |
| 2026-04-19 06:18 | 49.08955 | -45.19231 | 40934 ft | 489 kts | 73° |
| 2026-04-19 06:18 | 49.10945 | -45.09315 | 40934 ft | 489 kts | 73° |
| 2026-04-19 06:19 | 49.12926 | -44.99402 | 40934 ft | 489 kts | 74° |
| 2026-04-19 06:19 | 49.14902 | -44.89458 | 40934 ft | 489 kts | 74° |
| 2026-04-19 06:20 | 49.16868 | -44.79516 | 40934 ft | 489 kts | 74° |
| 2026-04-19 06:20 | 49.18827 | -44.69563 | 40934 ft | 489 kts | 74° |
| 2026-04-19 06:21 | 49.20775 | -44.59609 | 40934 ft | 489 kts | 74° |
| 2026-04-19 06:21 | 49.22715 | -44.49645 | 40934 ft | 489 kts | 74° |
| 2026-04-19 06:22 | 49.24648 | -44.39659 | 40934 ft | 489 kts | 74° |
| 2026-04-19 06:22 | 49.26571 | -44.29681 | 40934 ft | 489 kts | 74° |
| 2026-04-19 06:23 | 49.28485 | -44.19693 | 40934 ft | 489 kts | 74° |
| 2026-04-19 06:23 | 49.30389 | -44.09708 | 40934 ft | 489 kts | 75° |
| 2026-04-19 06:24 | 49.32288 | -43.99695 | 40934 ft | 489 kts | 75° |
| 2026-04-19 06:24 | 49.34173 | -43.89701 | 40934 ft | 489 kts | 75° |
| 2026-04-19 06:25 | 49.36054 | -43.79674 | 40934 ft | 489 kts | 75° |
| 2026-04-19 06:25 | 49.37913 | -43.69709 | 40934 ft | 489 kts | 75° |
| 2026-04-19 06:26 | 49.39775 | -43.59678 | 40934 ft | 489 kts | 75° |
| 2026-04-19 06:26 | 49.41627 | -43.49647 | 40934 ft | 489 kts | 75° |
| 2026-04-19 06:27 | 49.43471 | -43.39603 | 40934 ft | 489 kts | 75° |
| 2026-04-19 06:27 | 49.45310 | -43.29537 | 40934 ft | 489 kts | 75° |
| 2026-04-19 06:28 | 49.47137 | -43.19474 | 40934 ft | 489 kts | 75° |
| 2026-04-19 06:28 | 49.48956 | -43.09399 | 40934 ft | 489 kts | 75° |
| 2026-04-19 06:29 | 49.50767 | -42.99318 | 40934 ft | 489 kts | 75° |
| 2026-04-19 06:29 | 49.52566 | -42.89242 | 40934 ft | 489 kts | 75° |
| 2026-04-19 06:30 | 49.54358 | -42.79153 | 40934 ft | 489 kts | 75° |
| 2026-04-19 06:30 | 49.56143 | -42.69044 | 40934 ft | 489 kts | 76° |
| 2026-04-19 06:31 | 49.57917 | -42.58940 | 40934 ft | 489 kts | 76° |
| 2026-04-19 06:31 | 49.59674 | -42.48878 | 40934 ft | 489 kts | 76° |
| 2026-04-19 06:32 | 49.61441 | -42.38702 | 40934 ft | 489 kts | 76° |
| 2026-04-19 06:32 | 49.63179 | -42.28635 | 40934 ft | 489 kts | 76° |
| 2026-04-19 06:33 | 49.64918 | -42.18499 | 40934 ft | 489 kts | 76° |
| 2026-04-19 06:33 | 49.66649 | -42.08352 | 40934 ft | 489 kts | 76° |
| 2026-04-19 06:34 | 49.68368 | -41.98216 | 40934 ft | 489 kts | 76° |
| 2026-04-19 06:34 | 49.70082 | -41.88051 | 40934 ft | 489 kts | 76° |
| 2026-04-19 06:35 | 49.71787 | -41.77879 | 40934 ft | 489 kts | 76° |
| 2026-04-19 06:35 | 49.73481 | -41.67716 | 40934 ft | 489 kts | 76° |
| 2026-04-19 06:36 | 49.75169 | -41.57530 | 40934 ft | 489 kts | 76° |
| 2026-04-19 06:36 | 49.76846 | -41.47344 | 40934 ft | 489 kts | 76° |
| 2026-04-19 06:37 | 49.78513 | -41.37155 | 40934 ft | 489 kts | 76° |
| 2026-04-19 06:37 | 49.80163 | -41.27014 | 40934 ft | 489 kts | 77° |
| 2026-04-19 06:38 | 49.81813 | -41.16811 | 40934 ft | 489 kts | 77° |
| 2026-04-19 06:38 | 49.83453 | -41.06604 | 40934 ft | 489 kts | 77° |
| 2026-04-19 06:39 | 49.85086 | -40.96380 | 40934 ft | 489 kts | 77° |
| 2026-04-19 06:39 | 49.86708 | -40.86161 | 40934 ft | 489 kts | 77° |
| 2026-04-19 06:40 | 49.88321 | -40.75938 | 40934 ft | 488 kts | 77° |
| 2026-04-19 06:40 | 49.89928 | -40.65689 | 40934 ft | 488 kts | 77° |
| 2026-04-19 06:41 | 49.91523 | -40.55447 | 40934 ft | 488 kts | 77° |
| 2026-04-19 06:41 | 49.93109 | -40.45205 | 40934 ft | 488 kts | 77° |
| 2026-04-19 06:42 | 49.94679 | -40.34998 | 40934 ft | 488 kts | 77° |
| 2026-04-19 06:42 | 49.96246 | -40.24744 | 40934 ft | 488 kts | 77° |
| 2026-04-19 06:43 | 49.97808 | -40.14459 | 40934 ft | 488 kts | 77° |
| 2026-04-19 06:43 | 49.99357 | -40.04195 | 40934 ft | 488 kts | 77° |
| 2026-04-19 06:44 | 50.00892 | -39.93901 | 40934 ft | 488 kts | 78° |
| 2026-04-19 06:44 | 50.02379 | -39.83594 | 40934 ft | 488 kts | 78° |
| 2026-04-19 06:45 | 50.03850 | -39.73284 | 40934 ft | 488 kts | 78° |
| 2026-04-19 06:45 | 50.05319 | -39.62965 | 40934 ft | 488 kts | 78° |
| 2026-04-19 06:46 | 50.06781 | -39.52650 | 40934 ft | 488 kts | 78° |
| 2026-04-19 06:46 | 50.08235 | -39.42321 | 40934 ft | 488 kts | 78° |
| 2026-04-19 06:47 | 50.09671 | -39.32050 | 40934 ft | 488 kts | 78° |
| 2026-04-19 06:47 | 50.11109 | -39.21692 | 40934 ft | 488 kts | 78° |
| 2026-04-19 06:48 | 50.12535 | -39.11351 | 40934 ft | 488 kts | 78° |
| 2026-04-19 06:48 | 50.13952 | -39.00993 | 40934 ft | 488 kts | 79° |
| 2026-04-19 06:49 | 50.15360 | -38.90637 | 40934 ft | 488 kts | 79° |
| 2026-04-19 06:49 | 50.16760 | -38.80272 | 40934 ft | 488 kts | 79° |
| 2026-04-19 06:50 | 50.18149 | -38.69900 | 40934 ft | 488 kts | 79° |
| 2026-04-19 06:50 | 50.19529 | -38.59523 | 40934 ft | 488 kts | 79° |
| 2026-04-19 06:51 | 50.20898 | -38.49151 | 40934 ft | 488 kts | 79° |
| 2026-04-19 06:51 | 50.22260 | -38.38762 | 40934 ft | 488 kts | 79° |
| 2026-04-19 06:52 | 50.23613 | -38.28368 | 40934 ft | 488 kts | 79° |
| 2026-04-19 06:52 | 50.24956 | -38.17970 | 40934 ft | 488 kts | 79° |
| 2026-04-19 06:53 | 50.26289 | -38.07568 | 40934 ft | 488 kts | 79° |
| 2026-04-19 06:53 | 50.27615 | -37.97146 | 40934 ft | 488 kts | 79° |
| 2026-04-19 06:54 | 50.28930 | -37.86737 | 40934 ft | 488 kts | 79° |
| 2026-04-19 06:54 | 50.30235 | -37.76321 | 40934 ft | 488 kts | 79° |
| 2026-04-19 06:55 | 50.31524 | -37.65955 | 40934 ft | 488 kts | 79° |
| 2026-04-19 06:55 | 50.32811 | -37.55519 | 40934 ft | 488 kts | 80° |
| 2026-04-19 06:56 | 50.34089 | -37.45080 | 40934 ft | 488 kts | 80° |
| 2026-04-19 06:56 | 50.35356 | -37.34650 | 40934 ft | 488 kts | 80° |
| 2026-04-19 06:57 | 50.36615 | -37.24204 | 40934 ft | 488 kts | 80° |
| 2026-04-19 06:57 | 50.37867 | -37.13724 | 40934 ft | 488 kts | 80° |
| 2026-04-19 06:58 | 50.39106 | -37.03281 | 40934 ft | 488 kts | 80° |
| 2026-04-19 06:58 | 50.40338 | -36.92803 | 40934 ft | 488 kts | 80° |
| 2026-04-19 06:59 | 50.41560 | -36.82326 | 40934 ft | 488 kts | 80° |
| 2026-04-19 06:59 | 50.42772 | -36.71853 | 40934 ft | 488 kts | 80° |
| 2026-04-19 07:00 | 50.43968 | -36.61430 | 40934 ft | 488 kts | 81° |
| 2026-04-19 07:00 | 50.45161 | -36.50943 | 40934 ft | 488 kts | 81° |
| 2026-04-19 07:01 | 50.46344 | -36.40459 | 40934 ft | 488 kts | 81° |
| 2026-04-19 07:01 | 50.47519 | -36.29966 | 40934 ft | 488 kts | 81° |
| 2026-04-19 07:02 | 50.48684 | -36.19459 | 40934 ft | 488 kts | 81° |
| 2026-04-19 07:02 | 50.49839 | -36.08962 | 40934 ft | 488 kts | 81° |
| 2026-04-19 07:03 | 50.50984 | -35.98457 | 40934 ft | 488 kts | 81° |
| 2026-04-19 07:03 | 50.52120 | -35.87939 | 40934 ft | 488 kts | 81° |
| 2026-04-19 07:04 | 50.53247 | -35.77415 | 40934 ft | 488 kts | 81° |
| 2026-04-19 07:04 | 50.54366 | -35.66879 | 40934 ft | 488 kts | 81° |
| 2026-04-19 07:05 | 50.55286 | -35.58136 | 40934 ft | 488 kts | 81° |
| 2026-04-19 07:05 | 50.56386 | -35.47604 | 40934 ft | 488 kts | 81° |
| 2026-04-19 07:06 | 50.57476 | -35.37068 | 40934 ft | 488 kts | 81° |
| 2026-04-19 07:06 | 50.58558 | -35.26521 | 40934 ft | 488 kts | 82° |
| 2026-04-19 07:07 | 50.59630 | -35.15966 | 40934 ft | 488 kts | 82° |
| 2026-04-19 07:07 | 50.60692 | -35.05422 | 40934 ft | 488 kts | 82° |
| 2026-04-19 07:08 | 50.61744 | -34.94854 | 40934 ft | 488 kts | 82° |
| 2026-04-19 07:08 | 50.62786 | -34.84294 | 40934 ft | 488 kts | 82° |
| 2026-04-19 07:09 | 50.63821 | -34.73712 | 40934 ft | 488 kts | 82° |
| 2026-04-19 07:09 | 50.64838 | -34.63216 | 40934 ft | 488 kts | 82° |
| 2026-04-19 07:10 | 50.65853 | -34.52630 | 40934 ft | 488 kts | 82° |
| 2026-04-19 07:10 | 50.66859 | -34.42024 | 40934 ft | 488 kts | 82° |
| 2026-04-19 07:11 | 50.67854 | -34.31441 | 40934 ft | 488 kts | 82° |
| 2026-04-19 07:11 | 50.68840 | -34.20849 | 40934 ft | 488 kts | 82° |
| 2026-04-19 07:12 | 50.69810 | -34.10319 | 40934 ft | 488 kts | 82° |
| 2026-04-19 07:12 | 50.70782 | -33.99661 | 40934 ft | 488 kts | 82° |
| 2026-04-19 07:13 | 50.71738 | -33.89067 | 40934 ft | 488 kts | 83° |
| 2026-04-19 07:13 | 50.72679 | -33.78519 | 40934 ft | 488 kts | 83° |
| 2026-04-19 07:14 | 50.73616 | -33.67916 | 40934 ft | 488 kts | 83° |
| 2026-04-19 07:14 | 50.74543 | -33.57310 | 40934 ft | 488 kts | 83° |
| 2026-04-19 07:15 | 50.75461 | -33.46684 | 40934 ft | 488 kts | 83° |
| 2026-04-19 07:16 | 50.76821 | -33.30746 | 40934 ft | 488 kts | 83° |
| 2026-04-19 07:16 | 50.77714 | -33.20117 | 40934 ft | 488 kts | 83° |
| 2026-04-19 07:17 | 50.78598 | -33.09487 | 40934 ft | 488 kts | 83° |
| 2026-04-19 07:17 | 50.79472 | -32.98861 | 40934 ft | 488 kts | 83° |
| 2026-04-19 07:18 | 50.80337 | -32.88220 | 40934 ft | 488 kts | 83° |
| 2026-04-19 07:18 | 50.81194 | -32.77559 | 40934 ft | 488 kts | 83° |
| 2026-04-19 07:19 | 50.82033 | -32.66990 | 40934 ft | 488 kts | 83° |
| 2026-04-19 07:19 | 50.82874 | -32.56271 | 40934 ft | 488 kts | 84° |
| 2026-04-19 07:20 | 50.83694 | -32.45686 | 40934 ft | 488 kts | 84° |
| 2026-04-19 07:20 | 50.84511 | -32.35025 | 40934 ft | 488 kts | 84° |
| 2026-04-19 07:21 | 50.85317 | -32.24370 | 40934 ft | 488 kts | 84° |
| 2026-04-19 07:21 | 50.86114 | -32.13705 | 40934 ft | 488 kts | 84° |
| 2026-04-19 07:22 | 50.86901 | -32.03029 | 40934 ft | 488 kts | 84° |
| 2026-04-19 07:22 | 50.87679 | -31.92361 | 40934 ft | 488 kts | 84° |
| 2026-04-19 07:23 | 50.88448 | -31.81662 | 40934 ft | 488 kts | 84° |
| 2026-04-19 07:23 | 50.89207 | -31.70974 | 40934 ft | 488 kts | 84° |
| 2026-04-19 07:24 | 50.89955 | -31.60287 | 40934 ft | 488 kts | 84° |
| 2026-04-19 07:24 | 50.90693 | -31.49598 | 40934 ft | 488 kts | 84° |
| 2026-04-19 07:25 | 50.91416 | -31.38986 | 40934 ft | 488 kts | 84° |
| 2026-04-19 07:25 | 50.92140 | -31.28233 | 40934 ft | 488 kts | 84° |
| 2026-04-19 07:26 | 50.92844 | -31.17603 | 40934 ft | 488 kts | 85° |
| 2026-04-19 07:26 | 50.93544 | -31.06910 | 40934 ft | 488 kts | 85° |
| 2026-04-19 07:27 | 50.94233 | -30.96205 | 40934 ft | 488 kts | 85° |
| 2026-04-19 07:27 | 50.94914 | -30.85481 | 40934 ft | 488 kts | 85° |
| 2026-04-19 07:28 | 50.95583 | -30.74789 | 40934 ft | 488 kts | 85° |
| 2026-04-19 07:28 | 50.96244 | -30.64066 | 40934 ft | 488 kts | 85° |
| 2026-04-19 07:29 | 50.96893 | -30.53371 | 40934 ft | 488 kts | 85° |
| 2026-04-19 07:29 | 50.97535 | -30.42654 | 40934 ft | 488 kts | 85° |
| 2026-04-19 07:30 | 50.98166 | -30.31938 | 40934 ft | 488 kts | 85° |
| 2026-04-19 07:30 | 50.98787 | -30.21213 | 40934 ft | 488 kts | 85° |
| 2026-04-19 07:31 | 50.99399 | -30.10473 | 40934 ft | 488 kts | 85° |
| 2026-04-19 07:31 | 51.00001 | -29.99732 | 40934 ft | 488 kts | 85° |
| 2026-04-19 07:32 | 51.00510 | -29.89022 | 40934 ft | 488 kts | 87° |
| 2026-04-19 07:32 | 51.00920 | -29.78323 | 40934 ft | 488 kts | 87° |
| 2026-04-19 07:33 | 51.01331 | -29.67579 | 40934 ft | 488 kts | 87° |
| 2026-04-19 07:33 | 51.01750 | -29.56838 | 40934 ft | 488 kts | 87° |
| 2026-04-19 07:34 | 51.02165 | -29.46080 | 40934 ft | 488 kts | 87° |
| 2026-04-19 07:34 | 51.02571 | -29.35324 | 40934 ft | 488 kts | 87° |
| 2026-04-19 07:35 | 51.02967 | -29.24575 | 40934 ft | 488 kts | 87° |
| 2026-04-19 07:35 | 51.03353 | -29.13796 | 40934 ft | 488 kts | 87° |
| 2026-04-19 07:36 | 51.03730 | -29.03039 | 40934 ft | 488 kts | 87° |
| 2026-04-19 07:36 | 51.04095 | -28.92280 | 40934 ft | 488 kts | 88° |
| 2026-04-19 07:37 | 51.04450 | -28.81529 | 40934 ft | 488 kts | 88° |
| 2026-04-19 07:37 | 51.04796 | -28.70751 | 40934 ft | 488 kts | 88° |
| 2026-04-19 07:38 | 51.05132 | -28.59995 | 40934 ft | 488 kts | 88° |
| 2026-04-19 07:38 | 51.05459 | -28.49217 | 40934 ft | 488 kts | 88° |
| 2026-04-19 07:39 | 51.05775 | -28.38455 | 40934 ft | 488 kts | 88° |
| 2026-04-19 07:39 | 51.06081 | -28.27685 | 40934 ft | 488 kts | 88° |
| 2026-04-19 07:40 | 51.06378 | -28.16909 | 40934 ft | 488 kts | 88° |
| 2026-04-19 07:40 | 51.06663 | -28.06217 | 40934 ft | 488 kts | 88° |
| 2026-04-19 07:41 | 51.06940 | -27.95446 | 40934 ft | 488 kts | 88° |
| 2026-04-19 07:41 | 51.07206 | -27.84661 | 40934 ft | 488 kts | 88° |
| 2026-04-19 07:42 | 51.07464 | -27.73865 | 40934 ft | 488 kts | 88° |
| 2026-04-19 07:42 | 51.07711 | -27.63086 | 40934 ft | 488 kts | 89° |
| 2026-04-19 07:43 | 51.07948 | -27.52312 | 40934 ft | 488 kts | 89° |
| 2026-04-19 07:43 | 51.08175 | -27.41526 | 40934 ft | 488 kts | 89° |
| 2026-04-19 07:44 | 51.08392 | -27.30745 | 40934 ft | 488 kts | 89° |
| 2026-04-19 07:44 | 51.08598 | -27.20032 | 40934 ft | 488 kts | 89° |
| 2026-04-19 07:45 | 51.08797 | -27.09184 | 40934 ft | 488 kts | 89° |
| 2026-04-19 07:45 | 51.08983 | -26.98472 | 40934 ft | 488 kts | 89° |
| 2026-04-19 07:46 | 51.09161 | -26.87694 | 40934 ft | 488 kts | 89° |
| 2026-04-19 07:46 | 51.09329 | -26.76911 | 40934 ft | 488 kts | 89° |
| 2026-04-19 07:47 | 51.09486 | -26.66134 | 40934 ft | 488 kts | 89° |
| 2026-04-19 07:47 | 51.09634 | -26.55360 | 40934 ft | 488 kts | 89° |
| 2026-04-19 07:48 | 51.09772 | -26.44557 | 40934 ft | 488 kts | 89° |
| 2026-04-19 07:48 | 51.09900 | -26.33768 | 40934 ft | 488 kts | 89° |
| 2026-04-19 07:49 | 51.10019 | -26.22999 | 40934 ft | 488 kts | 90° |
| 2026-04-19 07:49 | 51.10127 | -26.12215 | 40934 ft | 488 kts | 90° |
| 2026-04-19 07:50 | 51.10225 | -26.01412 | 40934 ft | 488 kts | 90° |
| 2026-04-19 07:50 | 51.10313 | -25.90635 | 40934 ft | 488 kts | 90° |
| 2026-04-19 07:51 | 51.10392 | -25.79917 | 40934 ft | 488 kts | 90° |
| 2026-04-19 07:51 | 51.10460 | -25.69136 | 40934 ft | 487 kts | 90° |
| 2026-04-19 07:52 | 51.10518 | -25.58363 | 40934 ft | 487 kts | 90° |
| 2026-04-19 07:52 | 51.10559 | -25.49318 | 40934 ft | 487 kts | 90° |
| 2026-04-19 07:53 | 51.10600 | -25.38534 | 40934 ft | 487 kts | 90° |
| 2026-04-19 07:53 | 51.10631 | -25.27743 | 40934 ft | 487 kts | 90° |
| 2026-04-19 07:54 | 51.10651 | -25.17024 | 40934 ft | 487 kts | 90° |
| 2026-04-19 07:54 | 51.10662 | -25.06239 | 40934 ft | 487 kts | 90° |
| 2026-04-19 07:55 | 51.10662 | -24.95449 | 40934 ft | 487 kts | 90° |
| 2026-04-19 07:55 | 51.10654 | -24.84659 | 40934 ft | 487 kts | 91° |
| 2026-04-19 07:56 | 51.10634 | -24.73872 | 40934 ft | 487 kts | 91° |
| 2026-04-19 07:56 | 51.10605 | -24.63092 | 40934 ft | 487 kts | 91° |
| 2026-04-19 07:57 | 51.10566 | -24.52286 | 40934 ft | 487 kts | 91° |
| 2026-04-19 07:57 | 51.10517 | -24.41506 | 40934 ft | 487 kts | 91° |
| 2026-04-19 07:58 | 51.10459 | -24.30721 | 40934 ft | 487 kts | 91° |
| 2026-04-19 07:58 | 51.10391 | -24.20001 | 40934 ft | 487 kts | 91° |
| 2026-04-19 07:59 | 51.10311 | -24.09130 | 40934 ft | 487 kts | 91° |
| 2026-04-19 07:59 | 51.10223 | -23.98424 | 40934 ft | 487 kts | 91° |
| 2026-04-19 08:00 | 51.10125 | -23.87639 | 40934 ft | 487 kts | 91° |
| 2026-04-19 08:00 | 51.10017 | -23.76863 | 40934 ft | 487 kts | 91° |
| 2026-04-19 08:01 | 51.09898 | -23.66088 | 40934 ft | 487 kts | 91° |
| 2026-04-19 08:01 | 51.09770 | -23.55301 | 40934 ft | 487 kts | 91° |
| 2026-04-19 08:02 | 51.09632 | -23.44513 | 40934 ft | 487 kts | 92° |
| 2026-04-19 08:02 | 51.09484 | -23.33736 | 40934 ft | 487 kts | 92° |
| 2026-04-19 08:03 | 51.09326 | -23.22962 | 40934 ft | 487 kts | 92° |
| 2026-04-19 08:03 | 51.09158 | -23.12183 | 40934 ft | 487 kts | 92° |
| 2026-04-19 08:04 | 51.08981 | -23.01415 | 40934 ft | 487 kts | 92° |
| 2026-04-19 08:04 | 51.08793 | -22.90629 | 40934 ft | 487 kts | 92° |
| 2026-04-19 08:05 | 51.08596 | -22.79859 | 40934 ft | 487 kts | 92° |
| 2026-04-19 08:05 | 51.08387 | -22.69071 | 40934 ft | 487 kts | 92° |
| 2026-04-19 08:06 | 51.08170 | -22.58288 | 40934 ft | 487 kts | 92° |
| 2026-04-19 08:06 | 51.07944 | -22.47518 | 40934 ft | 487 kts | 92° |
| 2026-04-19 08:07 | 51.07706 | -22.36740 | 40934 ft | 487 kts | 92° |
| 2026-04-19 08:07 | 51.07459 | -22.25980 | 40934 ft | 487 kts | 92° |
| 2026-04-19 08:08 | 51.07202 | -22.15215 | 40934 ft | 487 kts | 93° |
| 2026-04-19 08:08 | 51.06935 | -22.04434 | 40934 ft | 487 kts | 93° |
| 2026-04-19 08:09 | 51.06658 | -21.93667 | 40934 ft | 487 kts | 93° |
| 2026-04-19 08:09 | 51.06372 | -21.82912 | 40934 ft | 487 kts | 93° |
| 2026-04-19 08:10 | 51.06077 | -21.72216 | 40934 ft | 487 kts | 93° |
| 2026-04-19 08:10 | 51.05771 | -21.61454 | 40934 ft | 487 kts | 93° |
| 2026-04-19 08:11 | 51.05454 | -21.50685 | 40934 ft | 487 kts | 93° |
| 2026-04-19 08:11 | 51.05128 | -21.39922 | 40934 ft | 487 kts | 93° |
| 2026-04-19 08:12 | 51.04793 | -21.29159 | 40934 ft | 487 kts | 93° |
| 2026-04-19 08:12 | 51.04448 | -21.18428 | 40934 ft | 487 kts | 94° |
| 2026-04-19 08:13 | 51.04093 | -21.07671 | 40934 ft | 487 kts | 94° |
| 2026-04-19 08:13 | 51.03750 | -20.97589 | 40934 ft | 487 kts | 94° |
| 2026-04-19 08:14 | 51.03374 | -20.86829 | 40934 ft | 487 kts | 94° |
| 2026-04-19 08:14 | 51.02793 | -20.70702 | 40934 ft | 487 kts | 94° |
| 2026-04-19 08:15 | 51.02394 | -20.59956 | 40934 ft | 487 kts | 94° |
| 2026-04-19 08:15 | 51.01985 | -20.49217 | 40934 ft | 487 kts | 94° |
| 2026-04-19 08:16 | 51.01566 | -20.38473 | 40934 ft | 487 kts | 94° |
| 2026-04-19 08:16 | 51.01137 | -20.27738 | 40934 ft | 487 kts | 94° |
| 2026-04-19 08:17 | 51.00698 | -20.16999 | 40934 ft | 487 kts | 94° |
| 2026-04-19 08:17 | 51.00249 | -20.06260 | 40934 ft | 487 kts | 94° |
| 2026-04-19 08:18 | 51.00095 | -19.95503 | 40935 ft | 488 kts | 89° |
| 2026-04-19 08:18 | 51.00276 | -19.84760 | 40934 ft | 488 kts | 89° |
| 2026-04-19 08:19 | 51.00496 | -19.74065 | 40934 ft | 488 kts | 89° |
| 2026-04-19 08:19 | 51.00707 | -19.63304 | 40934 ft | 488 kts | 89° |
| 2026-04-19 08:20 | 51.00902 | -19.52529 | 40934 ft | 488 kts | 89° |
| 2026-04-19 08:20 | 51.01083 | -19.41783 | 40934 ft | 488 kts | 89° |
| 2026-04-19 08:21 | 51.01255 | -19.31016 | 40934 ft | 488 kts | 89° |
| 2026-04-19 08:21 | 51.01415 | -19.20256 | 40934 ft | 488 kts | 89° |
| 2026-04-19 08:22 | 51.01567 | -19.09492 | 40934 ft | 488 kts | 89° |
| 2026-04-19 08:22 | 51.01709 | -18.98716 | 40934 ft | 488 kts | 89° |
| 2026-04-19 08:23 | 51.01840 | -18.87968 | 40934 ft | 488 kts | 89° |
| 2026-04-19 08:23 | 51.01962 | -18.77185 | 40934 ft | 488 kts | 90° |
| 2026-04-19 08:24 | 51.02074 | -18.66412 | 40934 ft | 488 kts | 90° |
| 2026-04-19 08:24 | 51.02176 | -18.55641 | 40934 ft | 488 kts | 90° |
| 2026-04-19 08:25 | 51.02268 | -18.44886 | 40934 ft | 488 kts | 90° |
| 2026-04-19 08:25 | 51.02351 | -18.34103 | 40934 ft | 487 kts | 90° |
| 2026-04-19 08:26 | 51.02423 | -18.23322 | 40934 ft | 487 kts | 90° |
| 2026-04-19 08:26 | 51.02485 | -18.12628 | 40934 ft | 487 kts | 90° |
| 2026-04-19 08:27 | 51.02537 | -18.01859 | 40934 ft | 487 kts | 90° |
| 2026-04-19 08:27 | 51.02580 | -17.91089 | 40934 ft | 487 kts | 90° |
| 2026-04-19 08:28 | 51.02613 | -17.80313 | 40934 ft | 487 kts | 90° |
| 2026-04-19 08:28 | 51.02635 | -17.69565 | 40934 ft | 487 kts | 90° |
| 2026-04-19 08:29 | 51.02649 | -17.58788 | 40934 ft | 487 kts | 90° |
| 2026-04-19 08:29 | 51.02652 | -17.48020 | 40934 ft | 487 kts | 90° |
| 2026-04-19 08:30 | 51.02645 | -17.37239 | 40934 ft | 487 kts | 91° |
| 2026-04-19 08:30 | 51.02628 | -17.26474 | 40934 ft | 487 kts | 91° |
| 2026-04-19 08:31 | 51.02602 | -17.15702 | 40934 ft | 487 kts | 91° |
| 2026-04-19 08:31 | 51.02565 | -17.04948 | 40934 ft | 487 kts | 91° |
| 2026-04-19 08:32 | 51.02519 | -16.94181 | 40934 ft | 487 kts | 91° |
| 2026-04-19 08:32 | 51.02463 | -16.83414 | 40934 ft | 487 kts | 91° |
| 2026-04-19 08:33 | 51.02397 | -16.72641 | 40934 ft | 487 kts | 91° |
| 2026-04-19 08:33 | 51.02321 | -16.61947 | 40934 ft | 487 kts | 91° |
| 2026-04-19 08:34 | 51.02235 | -16.51180 | 40934 ft | 487 kts | 91° |
| 2026-04-19 08:34 | 51.02139 | -16.40424 | 40934 ft | 487 kts | 91° |
| 2026-04-19 08:35 | 51.02034 | -16.29654 | 40934 ft | 487 kts | 91° |
| 2026-04-19 08:35 | 51.01919 | -16.18890 | 40934 ft | 487 kts | 91° |
| 2026-04-19 08:36 | 51.01793 | -16.08137 | 40934 ft | 487 kts | 91° |
| 2026-04-19 08:36 | 51.01657 | -15.97366 | 40934 ft | 487 kts | 92° |
| 2026-04-19 08:37 | 51.01513 | -15.86618 | 40934 ft | 487 kts | 92° |
| 2026-04-19 08:37 | 51.01383 | -15.77579 | 40934 ft | 487 kts | 92° |
| 2026-04-19 08:38 | 51.01220 | -15.66904 | 40934 ft | 487 kts | 92° |
| 2026-04-19 08:38 | 51.01047 | -15.56129 | 40934 ft | 487 kts | 92° |
| 2026-04-19 08:39 | 51.00864 | -15.45375 | 40934 ft | 487 kts | 92° |
| 2026-04-19 08:39 | 51.00672 | -15.34623 | 40934 ft | 487 kts | 92° |
| 2026-04-19 08:40 | 51.00470 | -15.23864 | 40934 ft | 487 kts | 92° |
| 2026-04-19 08:40 | 51.00257 | -15.13102 | 40934 ft | 487 kts | 92° |
| 2026-04-19 08:41 | 51.00034 | -15.02339 | 40934 ft | 487 kts | 92° |
| 2026-04-19 08:41 | 50.99900 | -14.91595 | 40934 ft | 488 kts | 90° |
| 2026-04-19 08:42 | 50.99982 | -14.80827 | 40934 ft | 488 kts | 90° |
| 2026-04-19 08:42 | 51.00060 | -14.70148 | 40934 ft | 487 kts | 90° |
| 2026-04-19 08:43 | 51.00091 | -14.59383 | 40934 ft | 487 kts | 90° |
| 2026-04-19 08:43 | 51.00094 | -14.48606 | 40934 ft | 487 kts | 90° |
| 2026-04-19 08:44 | 51.00086 | -14.37853 | 40934 ft | 487 kts | 91° |
| 2026-04-19 08:44 | 51.00069 | -14.27084 | 40934 ft | 487 kts | 91° |
| 2026-04-19 08:45 | 51.00042 | -14.16316 | 40934 ft | 487 kts | 91° |
| 2026-04-19 08:45 | 51.00007 | -14.05565 | 40934 ft | 487 kts | 91° |
| 2026-04-19 08:46 | 50.99565 | -13.94828 | 40934 ft | 487 kts | 97° |
| 2026-04-19 08:46 | 50.98752 | -13.84167 | 40934 ft | 487 kts | 98° |
| 2026-04-19 08:47 | 50.97879 | -13.73495 | 40934 ft | 487 kts | 98° |
| 2026-04-19 08:47 | 50.96999 | -13.62838 | 40934 ft | 487 kts | 98° |
| 2026-04-19 08:48 | 50.96117 | -13.52177 | 40934 ft | 487 kts | 98° |
| 2026-04-19 08:48 | 50.95235 | -13.41605 | 40934 ft | 487 kts | 98° |
| 2026-04-19 08:49 | 50.94337 | -13.30953 | 40934 ft | 487 kts | 98° |
| 2026-04-19 08:49 | 50.93430 | -13.20307 | 40934 ft | 487 kts | 98° |
| 2026-04-19 08:50 | 50.92515 | -13.09692 | 40934 ft | 487 kts | 98° |
| 2026-04-19 08:50 | 50.91588 | -12.99052 | 40934 ft | 487 kts | 98° |
| 2026-04-19 08:51 | 50.90652 | -12.88423 | 40934 ft | 487 kts | 98° |
| 2026-04-19 08:51 | 50.89706 | -12.77801 | 40934 ft | 487 kts | 98° |
| 2026-04-19 08:52 | 50.88749 | -12.67171 | 40934 ft | 487 kts | 98° |
| 2026-04-19 08:52 | 50.87783 | -12.56548 | 40934 ft | 487 kts | 98° |
| 2026-04-19 08:53 | 50.86808 | -12.45935 | 40934 ft | 487 kts | 99° |
| 2026-04-19 08:53 | 50.85824 | -12.35329 | 40934 ft | 487 kts | 99° |
| 2026-04-19 08:54 | 50.84829 | -12.24716 | 40934 ft | 487 kts | 99° |
| 2026-04-19 08:54 | 50.83832 | -12.14184 | 40934 ft | 487 kts | 99° |
| 2026-04-19 08:55 | 50.82819 | -12.03601 | 40934 ft | 487 kts | 99° |
| 2026-04-19 08:55 | 50.81796 | -11.93004 | 40934 ft | 487 kts | 99° |
| 2026-04-19 08:56 | 50.80763 | -11.82422 | 40934 ft | 487 kts | 99° |
| 2026-04-19 08:56 | 50.79723 | -11.71858 | 40934 ft | 487 kts | 99° |
| 2026-04-19 08:57 | 50.78670 | -11.61272 | 40934 ft | 487 kts | 99° |
| 2026-04-19 08:57 | 50.77609 | -11.50703 | 40934 ft | 487 kts | 99° |
| 2026-04-19 08:58 | 50.76540 | -11.40150 | 40934 ft | 487 kts | 99° |
| 2026-04-19 08:58 | 50.75460 | -11.29592 | 40934 ft | 487 kts | 99° |
| 2026-04-19 08:59 | 50.74369 | -11.19029 | 40934 ft | 487 kts | 99° |
| 2026-04-19 08:59 | 50.73270 | -11.08474 | 40934 ft | 487 kts | 100° |
| 2026-04-19 09:00 | 50.72161 | -10.97935 | 40934 ft | 487 kts | 100° |
| 2026-04-19 09:00 | 50.71051 | -10.87465 | 40934 ft | 487 kts | 100° |
| 2026-04-19 09:01 | 50.69925 | -10.76945 | 40934 ft | 487 kts | 100° |
| 2026-04-19 09:01 | 50.68786 | -10.66404 | 40934 ft | 487 kts | 100° |
| 2026-04-19 09:02 | 50.67634 | -10.55822 | 40934 ft | 487 kts | 100° |
| 2026-04-19 09:02 | 50.66484 | -10.45363 | 40934 ft | 487 kts | 100° |
| 2026-04-19 09:03 | 50.65320 | -10.34862 | 40934 ft | 487 kts | 100° |
| 2026-04-19 09:03 | 50.64144 | -10.24344 | 40934 ft | 487 kts | 100° |
| 2026-04-19 09:04 | 50.62959 | -10.13834 | 40934 ft | 487 kts | 101° |
| 2026-04-19 09:04 | 50.61767 | -10.03346 | 40934 ft | 487 kts | 101° |
| 2026-04-19 09:05 | 50.60563 | -9.92849 | 40934 ft | 487 kts | 101° |
| 2026-04-19 09:05 | 50.59349 | -9.82354 | 40934 ft | 487 kts | 101° |
| 2026-04-19 09:06 | 50.58126 | -9.71865 | 40934 ft | 487 kts | 101° |
| 2026-04-19 09:06 | 50.56896 | -9.61397 | 40934 ft | 487 kts | 101° |
| 2026-04-19 09:07 | 50.55655 | -9.50927 | 40934 ft | 487 kts | 101° |
| 2026-04-19 09:07 | 50.54406 | -9.40469 | 40934 ft | 487 kts | 101° |
| 2026-04-19 09:08 | 50.53146 | -9.30006 | 40934 ft | 487 kts | 101° |
| 2026-04-19 09:08 | 50.51877 | -9.19547 | 40934 ft | 487 kts | 101° |
| 2026-04-19 09:09 | 50.50599 | -9.09107 | 40934 ft | 487 kts | 101° |
| 2026-04-19 09:09 | 50.49311 | -8.98665 | 40934 ft | 487 kts | 101° |
| 2026-04-19 09:10 | 50.48014 | -8.88225 | 40934 ft | 487 kts | 101° |
| 2026-04-19 09:10 | 50.46708 | -8.77798 | 40934 ft | 487 kts | 102° |
| 2026-04-19 09:11 | 50.45401 | -8.67434 | 40934 ft | 487 kts | 102° |
| 2026-04-19 09:11 | 50.44075 | -8.57013 | 40934 ft | 487 kts | 102° |
| 2026-04-19 09:12 | 50.42740 | -8.46595 | 40934 ft | 487 kts | 102° |
| 2026-04-19 09:12 | 50.41397 | -8.36188 | 40934 ft | 487 kts | 102° |
| 2026-04-19 09:13 | 50.40045 | -8.25796 | 40934 ft | 487 kts | 102° |
| 2026-04-19 09:13 | 50.38682 | -8.15390 | 40934 ft | 487 kts | 102° |
| 2026-04-19 09:14 | 50.37311 | -8.05001 | 40934 ft | 487 kts | 102° |
| 2026-04-19 09:14 | 50.35876 | -7.94647 | 40935 ft | 487 kts | 105° |
| 2026-04-19 09:15 | 50.34041 | -7.84439 | 40934 ft | 487 kts | 107° |
| 2026-04-19 09:16 | 50.31186 | -7.69178 | 40934 ft | 487 kts | 106° |
| 2026-04-19 09:16 | 50.29340 | -7.59004 | 40934 ft | 487 kts | 106° |
| 2026-04-19 09:17 | 50.27503 | -7.48814 | 40934 ft | 487 kts | 106° |
| 2026-04-19 09:17 | 50.25656 | -7.38619 | 40934 ft | 487 kts | 106° |
| 2026-04-19 09:18 | 50.23803 | -7.28460 | 40934 ft | 487 kts | 106° |
| 2026-04-19 09:18 | 50.21947 | -7.18354 | 40934 ft | 487 kts | 106° |
| 2026-04-19 09:19 | 50.20062 | -7.08144 | 40934 ft | 487 kts | 107° |
| 2026-04-19 09:19 | 50.18190 | -6.98062 | 40934 ft | 487 kts | 107° |
| 2026-04-19 09:20 | 50.16298 | -6.87924 | 40934 ft | 487 kts | 107° |
| 2026-04-19 09:20 | 50.14399 | -6.77802 | 40934 ft | 487 kts | 107° |
| 2026-04-19 09:21 | 50.12489 | -6.67678 | 40934 ft | 487 kts | 107° |
| 2026-04-19 09:21 | 50.10567 | -6.57550 | 40934 ft | 487 kts | 107° |
| 2026-04-19 09:22 | 50.08640 | -6.47448 | 40934 ft | 487 kts | 107° |
| 2026-04-19 09:22 | 50.06706 | -6.37364 | 40934 ft | 487 kts | 107° |
| 2026-04-19 09:23 | 50.05091 | -6.28979 | 40934 ft | 487 kts | 107° |
| 2026-04-19 09:23 | 50.03137 | -6.18886 | 40934 ft | 487 kts | 107° |
| 2026-04-19 09:24 | 50.01176 | -6.08811 | 40934 ft | 487 kts | 107° |
| 2026-04-19 09:24 | 49.99209 | -5.98756 | 40934 ft | 487 kts | 107° |
| 2026-04-19 09:25 | 49.97231 | -5.88698 | 40934 ft | 487 kts | 107° |
| 2026-04-19 09:25 | 49.95242 | -5.78643 | 40934 ft | 487 kts | 107° |
| 2026-04-19 09:26 | 49.93248 | -5.68610 | 40934 ft | 487 kts | 108° |
| 2026-04-19 09:26 | 49.91240 | -5.58562 | 40934 ft | 487 kts | 108° |
| 2026-04-19 09:27 | 49.89228 | -5.48540 | 40934 ft | 487 kts | 108° |
| 2026-04-19 09:27 | 49.87217 | -5.38571 | 40934 ft | 487 kts | 108° |
| 2026-04-19 09:28 | 49.85185 | -5.28557 | 40934 ft | 487 kts | 108° |
| 2026-04-19 09:28 | 49.83148 | -5.18567 | 40934 ft | 487 kts | 108° |
| 2026-04-19 09:29 | 49.81097 | -5.08562 | 40934 ft | 487 kts | 108° |
| 2026-04-19 09:29 | 49.79040 | -4.98576 | 40934 ft | 487 kts | 108° |
| 2026-04-19 09:30 | 49.76978 | -4.88612 | 40934 ft | 487 kts | 108° |
| 2026-04-19 09:30 | 49.74904 | -4.78644 | 40934 ft | 487 kts | 108° |